sensor_id;sensor_type;location;lat;lon;timestamp;pressure;altitude;pressure_sealevel;temperature;humidity
62025;BME280;47978;49.118;12.146;2023-03-16T00:01:02;97965.94;;;-1.87;88.59
62025;BME280;47978;49.118;12.146;2023-03-16T00:05:05;97962.56;;;-1.76;88.52
62025;BME280;47978;49.118;12.146;2023-03-16T00:09:06;97963.38;;;-1.75;88.72
62025;BME280;47978;49.118;12.146;2023-03-16T00:13:08;97962.59;;;-1.44;87.84
62025;BME280;47978;49.118;12.146;2023-03-16T00:17:09;97971.41;;;-1.55;89.10
62025;BME280;47978;49.118;12.146;2023-03-16T00:21:12;97974.53;;;-1.52;89.40
62025;BME280;47978;49.118;12.146;2023-03-16T00:25:14;97978.69;;;-1.18;88.48
62025;BME280;47978;49.118;12.146;2023-03-16T00:29:15;97976.03;;;-1.24;88.90
62025;BME280;47978;49.118;12.146;2023-03-16T00:33:16;97975.81;;;-1.23;89.26
62025;BME280;47978;49.118;12.146;2023-03-16T00:37:19;97980.91;;;-0.76;89.12
62025;BME280;47978;49.118;12.146;2023-03-16T00:41:21;97981.19;;;-0.84;89.48
62025;BME280;47978;49.118;12.146;2023-03-16T00:45:22;97976.47;;;-0.96;89.93
62025;BME280;47978;49.118;12.146;2023-03-16T00:49:24;97976.41;;;-0.64;88.87
62025;BME280;47978;49.118;12.146;2023-03-16T00:53:26;97975.50;;;-0.83;89.62
62025;BME280;47978;49.118;12.146;2023-03-16T00:57:28;97975.31;;;-0.81;89.91
62025;BME280;47978;49.118;12.146;2023-03-16T01:01:29;97968.31;;;-0.46;90.43
62025;BME280;47978;49.118;12.146;2023-03-16T01:05:31;97971.41;;;-0.42;91.17
62025;BME280;47978;49.118;12.146;2023-03-16T01:09:34;97973.97;;;-0.47;91.66
62025;BME280;47978;49.118;12.146;2023-03-16T01:13:35;97968.75;;;-0.49;91.95
62025;BME280;47978;49.118;12.146;2023-03-16T01:17:37;97970.41;;;-0.48;92.17
62025;BME280;47978;49.118;12.146;2023-03-16T01:21:38;97968.91;;;-0.43;91.92
62025;BME280;47978;49.118;12.146;2023-03-16T01:25:41;97960.25;;;-0.34;92.29
62025;BME280;47978;49.118;12.146;2023-03-16T01:29:42;97961.25;;;-0.28;92.28
62025;BME280;47978;49.118;12.146;2023-03-16T01:33:44;97959.41;;;-0.34;92.21
62025;BME280;47978;49.118;12.146;2023-03-16T01:37:45;97961.47;;;-0.11;91.42
62025;BME280;47978;49.118;12.146;2023-03-16T01:41:48;97952.03;;;-0.09;90.25
62025;BME280;47978;49.118;12.146;2023-03-16T01:50:21;97962.16;;;-0.16;89.92
62025;BME280;47978;49.118;12.146;2023-03-16T01:54:23;97967.75;;;-0.11;89.32
62025;BME280;47978;49.118;12.146;2023-03-16T01:58:27;97951.13;;;-0.39;89.71
62025;BME280;47978;49.118;12.146;2023-03-16T02:02:29;97963.34;;;-0.12;88.63
62025;BME280;47978;49.118;12.146;2023-03-16T02:06:31;97960.09;;;-0.20;88.43
62025;BME280;47978;49.118;12.146;2023-03-16T02:10:32;97963.09;;;-0.29;87.90
62025;BME280;47978;49.118;12.146;2023-03-16T02:14:36;97969.06;;;-0.38;88.09
62025;BME280;47978;49.118;12.146;2023-03-16T02:18:37;97964.34;;;-0.25;87.49
62025;BME280;47978;49.118;12.146;2023-03-16T02:22:40;97971.03;;;-0.27;86.69
62025;BME280;47978;49.118;12.146;2023-03-16T02:26:43;97957.81;;;-0.42;88.32
62025;BME280;47978;49.118;12.146;2023-03-16T02:30:48;97975.41;;;-0.44;88.45
62025;BME280;47978;49.118;12.146;2023-03-16T02:34:50;97969.19;;;-0.52;88.98
62025;BME280;47978;49.118;12.146;2023-03-16T02:38:52;97969.16;;;-0.45;89.01
62025;BME280;47978;49.118;12.146;2023-03-16T02:42:55;97974.03;;;-0.54;89.21
62025;BME280;47978;49.118;12.146;2023-03-16T02:47:01;97968.44;;;-0.59;89.29
62025;BME280;47978;49.118;12.146;2023-03-16T02:51:04;97968.53;;;-0.47;88.92
62025;BME280;47978;49.118;12.146;2023-03-16T02:55:06;97970.72;;;-0.37;88.41
62025;BME280;47978;49.118;12.146;2023-03-16T02:59:07;97970.97;;;-0.64;88.78
62025;BME280;47978;49.118;12.146;2023-03-16T03:03:10;97972.50;;;-0.68;88.97
62025;BME280;47978;49.118;12.146;2023-03-16T03:07:12;97983.75;;;-0.46;87.99
62025;BME280;47978;49.118;12.146;2023-03-16T03:11:13;97979.78;;;-0.43;88.14
62025;BME280;47978;49.118;12.146;2023-03-16T03:15:15;97991.97;;;-0.53;88.63
62025;BME280;47978;49.118;12.146;2023-03-16T03:19:18;97985.94;;;-0.55;87.50
62025;BME280;47978;49.118;12.146;2023-03-16T03:23:19;97994.59;;;-0.64;87.29
62025;BME280;47978;49.118;12.146;2023-03-16T03:27:21;97987.88;;;-0.62;87.18
62025;BME280;47978;49.118;12.146;2023-03-16T03:31:23;97980.84;;;-0.70;87.72
62025;BME280;47978;49.118;12.146;2023-03-16T03:35:26;97981.09;;;-0.71;87.42
62025;BME280;47978;49.118;12.146;2023-03-16T03:39:27;97973.06;;;-0.66;87.12
62025;BME280;47978;49.118;12.146;2023-03-16T03:43:29;97969.72;;;-0.43;86.58
62025;BME280;47978;49.118;12.146;2023-03-16T03:47:30;97967.00;;;-0.43;86.54
62025;BME280;47978;49.118;12.146;2023-03-16T03:51:33;97960.72;;;-0.62;86.78
62025;BME280;47978;49.118;12.146;2023-03-16T03:55:34;97974.03;;;-0.79;87.88
62025;BME280;47978;49.118;12.146;2023-03-16T03:59:36;97982.63;;;-0.82;88.35
62025;BME280;47978;49.118;12.146;2023-03-16T04:03:37;97976.66;;;-0.65;87.11
62025;BME280;47978;49.118;12.146;2023-03-16T04:07:40;97981.38;;;-0.86;88.12
62025;BME280;47978;49.118;12.146;2023-03-16T04:11:41;97975.50;;;-0.83;87.94
62025;BME280;47978;49.118;12.146;2023-03-16T04:15:42;97983.44;;;-0.56;86.73
62025;BME280;47978;49.118;12.146;2023-03-16T04:19:44;97978.59;;;-0.54;86.48
62025;BME280;47978;49.118;12.146;2023-03-16T04:23:47;98003.44;;;-0.76;86.89
62025;BME280;47978;49.118;12.146;2023-03-16T04:27:49;97986.88;;;-0.68;87.01
62025;BME280;47978;49.118;12.146;2023-03-16T04:31:50;97988.22;;;-0.77;87.50
62025;BME280;47978;49.118;12.146;2023-03-16T04:35:52;97993.81;;;-0.97;88.16
62025;BME280;47978;49.118;12.146;2023-03-16T04:39:54;97977.47;;;-0.90;88.07
62025;BME280;47978;49.118;12.146;2023-03-16T04:43:56;97973.75;;;-0.96;88.57
62025;BME280;47978;49.118;12.146;2023-03-16T04:47:57;97987.97;;;-1.00;89.34
62025;BME280;47978;49.118;12.146;2023-03-16T04:51:59;97984.25;;;-1.06;89.25
62025;BME280;47978;49.118;12.146;2023-03-16T04:56:02;97969.09;;;-1.14;89.34
62025;BME280;47978;49.118;12.146;2023-03-16T05:00:04;97962.06;;;-0.96;88.54
62025;BME280;47978;49.118;12.146;2023-03-16T05:04:05;97960.50;;;-0.85;87.26
62025;BME280;47978;49.118;12.146;2023-03-16T05:08:07;97947.59;;;-1.15;88.44
62025;BME280;47978;49.118;12.146;2023-03-16T05:12:10;97958.28;;;-0.95;87.20
62025;BME280;47978;49.118;12.146;2023-03-16T05:16:11;97949.94;;;-0.94;86.68
62025;BME280;47978;49.118;12.146;2023-03-16T05:20:13;97956.47;;;-1.01;86.89
62025;BME280;47978;49.118;12.146;2023-03-16T05:24:16;97948.19;;;-1.13;86.97
62025;BME280;47978;49.118;12.146;2023-03-16T05:28:19;97954.47;;;-1.51;88.21
62025;BME280;47978;49.118;12.146;2023-03-16T05:32:20;97955.66;;;-1.40;87.72
62025;BME280;47978;49.118;12.146;2023-03-16T05:36:22;97977.28;;;-1.59;88.41
62025;BME280;47978;49.118;12.146;2023-03-16T05:40:23;97971.09;;;-1.72;88.11
62025;BME280;47978;49.118;12.146;2023-03-16T05:44:26;97972.56;;;-1.76;88.34
62025;BME280;47978;49.118;12.146;2023-03-16T05:48:27;97976.84;;;-1.55;87.08
62025;BME280;47978;49.118;12.146;2023-03-16T05:52:29;97967.91;;;-1.63;88.13
62025;BME280;47978;49.118;12.146;2023-03-16T05:56:30;97980.00;;;-1.59;87.40
62025;BME280;47978;49.118;12.146;2023-03-16T06:00:33;97963.38;;;-1.37;87.25
62025;BME280;47978;49.118;12.146;2023-03-16T06:04:35;97967.28;;;-1.26;86.65
62025;BME280;47978;49.118;12.146;2023-03-16T06:08:36;97961.09;;;-1.08;86.45
62025;BME280;47978;49.118;12.146;2023-03-16T06:12:40;97966.00;;;-0.92;86.32
62025;BME280;47978;49.118;12.146;2023-03-16T06:16:43;97962.75;;;-0.57;85.61
62025;BME280;47978;49.118;12.146;2023-03-16T06:20:45;97977.50;;;-0.47;85.78
62025;BME280;47978;49.118;12.146;2023-03-16T06:24:46;97975.66;;;-0.09;84.53
62025;BME280;47978;49.118;12.146;2023-03-16T06:28:48;97984.75;;;0.03;82.63
62025;BME280;47978;49.118;12.146;2023-03-16T06:32:50;97982.63;;;-0.13;83.44
62025;BME280;47978;49.118;12.146;2023-03-16T06:36:52;97982.91;;;-0.03;83.32
62025;BME280;47978;49.118;12.146;2023-03-16T06:40:53;97997.28;;;0.04;83.38
62025;BME280;47978;49.118;12.146;2023-03-16T06:44:55;97991.53;;;0.12;83.02
62025;BME280;47978;49.118;12.146;2023-03-16T06:48:57;97993.78;;;0.15;82.88
62025;BME280;47978;49.118;12.146;2023-03-16T06:52:59;98002.09;;;0.39;81.95
62025;BME280;47978;49.118;12.146;2023-03-16T06:57:00;97996.59;;;0.27;82.50
62025;BME280;47978;49.118;12.146;2023-03-16T07:01:02;97991.31;;;0.62;80.89
62025;BME280;47978;49.118;12.146;2023-03-16T07:05:06;97998.00;;;0.78;80.14
62025;BME280;47978;49.118;12.146;2023-03-16T07:09:07;98009.81;;;1.02;80.08
62025;BME280;47978;49.118;12.146;2023-03-16T07:13:09;98003.47;;;1.08;79.15
62025;BME280;47978;49.118;12.146;2023-03-16T07:17:10;98002.69;;;1.43;78.53
62025;BME280;47978;49.118;12.146;2023-03-16T07:21:13;98002.06;;;1.29;78.06
62025;BME280;47978;49.118;12.146;2023-03-16T07:25:14;98004.59;;;1.43;78.41
62025;BME280;47978;49.118;12.146;2023-03-16T07:29:15;98005.44;;;1.90;77.24
62025;BME280;47978;49.118;12.146;2023-03-16T07:33:17;98006.25;;;2.14;75.76
62025;BME280;47978;49.118;12.146;2023-03-16T07:37:20;98004.38;;;2.55;75.89
62025;BME280;47978;49.118;12.146;2023-03-16T07:41:26;98000.75;;;2.78;74.41
62025;BME280;47978;49.118;12.146;2023-03-16T07:45:27;98001.88;;;2.94;74.39
62025;BME280;47978;49.118;12.146;2023-03-16T07:49:29;98015.56;;;3.11;73.88
62025;BME280;47978;49.118;12.146;2023-03-16T07:53:32;98006.59;;;3.27;73.92
62025;BME280;47978;49.118;12.146;2023-03-16T07:57:33;98009.56;;;3.43;72.51
62025;BME280;47978;49.118;12.146;2023-03-16T08:01:34;98024.31;;;3.58;73.10
62025;BME280;47978;49.118;12.146;2023-03-16T08:05:36;98017.16;;;3.24;74.00
62025;BME280;47978;49.118;12.146;2023-03-16T08:09:39;98021.31;;;3.26;75.03
62025;BME280;47978;49.118;12.146;2023-03-16T08:13:40;98020.75;;;3.58;73.79
62025;BME280;47978;49.118;12.146;2023-03-16T08:17:41;98033.78;;;3.51;73.14
62025;BME280;47978;49.118;12.146;2023-03-16T08:21:43;98024.00;;;3.55;73.36
62025;BME280;47978;49.118;12.146;2023-03-16T08:26:02;98030.28;;;3.72;73.06
62025;BME280;47978;49.118;12.146;2023-03-16T08:30:04;98019.34;;;3.55;73.35
62025;BME280;47978;49.118;12.146;2023-03-16T08:34:06;98014.16;;;4.10;73.41
62025;BME280;47978;49.118;12.146;2023-03-16T08:38:07;98013.53;;;4.41;70.91
62025;BME280;47978;49.118;12.146;2023-03-16T08:42:13;98008.94;;;4.69;70.29
62025;BME280;47978;49.118;12.146;2023-03-16T08:46:14;98004.50;;;4.63;71.87
62025;BME280;47978;49.118;12.146;2023-03-16T08:50:16;98002.03;;;4.61;71.62
62025;BME280;47978;49.118;12.146;2023-03-16T08:54:18;97995.22;;;4.91;71.21
62025;BME280;47978;49.118;12.146;2023-03-16T08:58:23;97995.91;;;5.03;70.82
62025;BME280;47978;49.118;12.146;2023-03-16T09:02:24;97983.31;;;4.80;71.94
62025;BME280;47978;49.118;12.146;2023-03-16T09:06:25;97992.81;;;3.90;74.46
62025;BME280;47978;49.118;12.146;2023-03-16T09:10:27;97990.56;;;3.87;76.54
62025;BME280;47978;49.118;12.146;2023-03-16T09:14:30;97984.03;;;4.04;67.20
62025;BME280;47978;49.118;12.146;2023-03-16T09:18:32;97976.28;;;4.40;66.01
62025;BME280;47978;49.118;12.146;2023-03-16T09:22:34;97967.19;;;4.84;64.91
62025;BME280;47978;49.118;12.146;2023-03-16T09:26:36;97973.97;;;5.03;62.84
62025;BME280;47978;49.118;12.146;2023-03-16T09:30:39;97983.31;;;5.02;62.15
62025;BME280;47978;49.118;12.146;2023-03-16T09:34:40;97980.22;;;5.26;62.26
62025;BME280;47978;49.118;12.146;2023-03-16T09:38:42;97992.88;;;5.59;61.17
62025;BME280;47978;49.118;12.146;2023-03-16T09:42:44;97987.25;;;5.76;59.81
62025;BME280;47978;49.118;12.146;2023-03-16T09:46:51;97983.09;;;5.36;60.61
62025;BME280;47978;49.118;12.146;2023-03-16T09:50:53;97981.94;;;5.32;61.79
62025;BME280;47978;49.118;12.146;2023-03-16T09:54:57;97971.13;;;5.47;62.00
62025;BME280;47978;49.118;12.146;2023-03-16T09:59:00;97967.16;;;5.06;64.00
62025;BME280;47978;49.118;12.146;2023-03-16T10:03:08;97974.97;;;5.19;64.84
62025;BME280;47978;49.118;12.146;2023-03-16T10:07:17;97986.19;;;5.17;65.09
62025;BME280;47978;49.118;12.146;2023-03-16T10:11:23;97984.69;;;5.05;65.46
62025;BME280;47978;49.118;12.146;2023-03-16T10:15:28;97973.00;;;4.87;66.06
62025;BME280;47978;49.118;12.146;2023-03-16T10:19:35;97980.81;;;5.28;65.39
62025;BME280;47978;49.118;12.146;2023-03-16T10:23:38;97963.00;;;5.30;65.41
62025;BME280;47978;49.118;12.146;2023-03-16T10:27:43;97966.94;;;5.39;65.44
62025;BME280;47978;49.118;12.146;2023-03-16T10:31:44;97957.00;;;5.33;64.86
62025;BME280;47978;49.118;12.146;2023-03-16T10:35:47;97960.09;;;5.42;64.04
62025;BME280;47978;49.118;12.146;2023-03-16T10:39:51;97956.78;;;5.08;65.34
62025;BME280;47978;49.118;12.146;2023-03-16T10:43:53;97962.81;;;5.10;67.38
62025;BME280;47978;49.118;12.146;2023-03-16T10:48:04;97962.66;;;4.94;67.69
62025;BME280;47978;49.118;12.146;2023-03-16T10:52:10;97969.84;;;4.73;68.18
62025;BME280;47978;49.118;12.146;2023-03-16T10:56:18;97969.53;;;4.97;68.09
62025;BME280;47978;49.118;12.146;2023-03-16T11:00:20;97981.91;;;5.27;67.46
62025;BME280;47978;49.118;12.146;2023-03-16T11:04:23;97958.41;;;5.36;66.73
62025;BME280;47978;49.118;12.146;2023-03-16T11:08:26;97971.53;;;5.34;65.05
62025;BME280;47978;49.118;12.146;2023-03-16T11:12:31;97965.72;;;4.98;66.55
62025;BME280;47978;49.118;12.146;2023-03-16T11:16:33;97958.00;;;4.68;67.79
62025;BME280;47978;49.118;12.146;2023-03-16T11:20:37;97961.69;;;4.57;69.33
62025;BME280;47978;49.118;12.146;2023-03-16T11:24:43;97959.59;;;4.91;69.92
62025;BME280;47978;49.118;12.146;2023-03-16T11:28:45;97942.53;;;5.11;68.83
62025;BME280;47978;49.118;12.146;2023-03-16T11:32:50;97940.25;;;5.30;64.87
62025;BME280;47978;49.118;12.146;2023-03-16T11:36:53;97931.94;;;5.19;66.82
62025;BME280;47978;49.118;12.146;2023-03-16T11:40:57;97925.78;;;5.39;65.39
62025;BME280;47978;49.118;12.146;2023-03-16T11:45:02;97907.41;;;5.40;63.51
62025;BME280;47978;49.118;12.146;2023-03-16T11:49:13;97906.50;;;5.61;62.79
62025;BME280;47978;49.118;12.146;2023-03-16T11:53:24;97900.88;;;5.89;62.20
62025;BME280;47978;49.118;12.146;2023-03-16T11:57:32;97913.13;;;6.13;61.71
62025;BME280;47978;49.118;12.146;2023-03-16T12:01:42;97895.53;;;6.04;57.46
62025;BME280;47978;49.118;12.146;2023-03-16T12:06:01;97890.28;;;6.02;56.24
62025;BME280;47978;49.118;12.146;2023-03-16T12:10:23;97890.34;;;6.13;56.33
62025;BME280;47978;49.118;12.146;2023-03-16T12:14:27;97885.72;;;6.28;56.07
62025;BME280;47978;49.118;12.146;2023-03-16T12:18:35;97888.75;;;6.27;56.02
62025;BME280;47978;49.118;12.146;2023-03-16T12:22:40;97884.06;;;6.22;56.77
62025;BME280;47978;49.118;12.146;2023-03-16T12:26:42;97879.41;;;6.18;56.98
62025;BME280;47978;49.118;12.146;2023-03-16T12:30:46;97881.63;;;6.31;55.17
62025;BME280;47978;49.118;12.146;2023-03-16T12:34:50;97869.03;;;6.45;57.07
62025;BME280;47978;49.118;12.146;2023-03-16T12:38:55;97857.81;;;6.62;55.50
62025;BME280;47978;49.118;12.146;2023-03-16T12:47:23;97857.03;;;6.87;53.71
62025;BME280;47978;49.118;12.146;2023-03-16T12:51:32;97843.03;;;6.84;54.81
62025;BME280;47978;49.118;12.146;2023-03-16T12:55:42;97840.84;;;6.81;55.08
62025;BME280;47978;49.118;12.146;2023-03-16T12:59:45;97836.44;;;6.95;51.64
62025;BME280;47978;49.118;12.146;2023-03-16T13:03:48;97841.94;;;7.10;53.23
62025;BME280;47978;49.118;12.146;2023-03-16T13:07:50;97833.41;;;7.22;52.54
62025;BME280;47978;49.118;12.146;2023-03-16T13:11:53;97826.53;;;7.25;54.37
62025;BME280;47978;49.118;12.146;2023-03-16T13:16:02;97820.19;;;7.14;53.58
62025;BME280;47978;49.118;12.146;2023-03-16T13:20:22;97812.78;;;7.40;54.51
62025;BME280;47978;49.118;12.146;2023-03-16T13:24:35;97820.94;;;7.65;52.21
62025;BME280;47978;49.118;12.146;2023-03-16T13:28:37;97804.72;;;7.59;50.36
62025;BME280;47978;49.118;12.146;2023-03-16T13:32:38;97805.84;;;7.48;51.10
62025;BME280;47978;49.118;12.146;2023-03-16T13:36:41;97796.75;;;7.62;50.73
62025;BME280;47978;49.118;12.146;2023-03-16T13:40:44;97780.19;;;7.73;49.34
62025;BME280;47978;49.118;12.146;2023-03-16T13:44:46;97783.75;;;7.88;48.22
62025;BME280;47978;49.118;12.146;2023-03-16T13:48:48;97782.66;;;7.79;48.22
62025;BME280;47978;49.118;12.146;2023-03-16T13:52:54;97787.25;;;7.99;49.49
62025;BME280;47978;49.118;12.146;2023-03-16T13:56:56;97792.75;;;7.99;48.50
62025;BME280;47978;49.118;12.146;2023-03-16T14:00:59;97789.72;;;8.06;48.33
62025;BME280;47978;49.118;12.146;2023-03-16T14:05:08;97782.03;;;8.03;49.14
62025;BME280;47978;49.118;12.146;2023-03-16T14:09:14;97782.28;;;8.01;49.21
62025;BME280;47978;49.118;12.146;2023-03-16T14:13:21;97775.56;;;7.58;47.04
62025;BME280;47978;49.118;12.146;2023-03-16T14:17:23;97772.53;;;7.64;47.43
62025;BME280;47978;49.118;12.146;2023-03-16T14:21:25;97765.63;;;7.77;47.74
62025;BME280;47978;49.118;12.146;2023-03-16T14:25:28;97762.50;;;7.94;49.16
62025;BME280;47978;49.118;12.146;2023-03-16T14:29:30;97764.13;;;8.05;48.24
62025;BME280;47978;49.118;12.146;2023-03-16T14:33:32;97766.19;;;8.24;47.30
62025;BME280;47978;49.118;12.146;2023-03-16T14:37:34;97770.94;;;8.13;46.23
62025;BME280;47978;49.118;12.146;2023-03-16T14:41:37;97756.06;;;8.14;47.06
62025;BME280;47978;49.118;12.146;2023-03-16T14:45:38;97757.91;;;8.29;46.45
62025;BME280;47978;49.118;12.146;2023-03-16T14:49:42;97750.84;;;8.13;44.65
62025;BME280;47978;49.118;12.146;2023-03-16T14:53:44;97762.50;;;7.94;44.18
62025;BME280;47978;49.118;12.146;2023-03-16T14:57:47;97750.00;;;8.17;44.09
62025;BME280;47978;49.118;12.146;2023-03-16T15:01:48;97753.34;;;8.09;42.80
62025;BME280;47978;49.118;12.146;2023-03-16T15:05:50;97741.19;;;8.15;41.97
62025;BME280;47978;49.118;12.146;2023-03-16T15:09:52;97730.75;;;8.07;42.11
62025;BME280;47978;49.118;12.146;2023-03-16T15:13:55;97712.66;;;7.91;41.09
62025;BME280;47978;49.118;12.146;2023-03-16T15:17:56;97706.56;;;7.99;40.58
62025;BME280;47978;49.118;12.146;2023-03-16T15:21:58;97711.84;;;7.90;40.42
62025;BME280;47978;49.118;12.146;2023-03-16T15:26:00;97709.84;;;8.06;40.77
62025;BME280;47978;49.118;12.146;2023-03-16T15:30:04;97695.78;;;8.07;41.96
62025;BME280;47978;49.118;12.146;2023-03-16T15:34:06;97702.88;;;8.19;42.15
62025;BME280;47978;49.118;12.146;2023-03-16T15:38:10;97690.25;;;8.13;41.66
62025;BME280;47978;49.118;12.146;2023-03-16T15:42:14;97688.88;;;8.10;42.45
62025;BME280;47978;49.118;12.146;2023-03-16T15:46:17;97696.88;;;8.11;43.62
62025;BME280;47978;49.118;12.146;2023-03-16T15:50:19;97682.31;;;8.06;43.12
62025;BME280;47978;49.118;12.146;2023-03-16T15:54:21;97680.41;;;8.01;41.92
62025;BME280;47978;49.118;12.146;2023-03-16T15:58:23;97682.69;;;7.89;39.35
62025;BME280;47978;49.118;12.146;2023-03-16T16:02:27;97674.19;;;7.80;39.00
62025;BME280;47978;49.118;12.146;2023-03-16T16:06:29;97672.06;;;7.67;40.20
62025;BME280;47978;49.118;12.146;2023-03-16T16:10:30;97679.28;;;7.48;40.16
62025;BME280;47978;49.118;12.146;2023-03-16T16:14:32;97694.69;;;7.54;41.81
62025;BME280;47978;49.118;12.146;2023-03-16T16:18:35;97687.22;;;7.59;41.55
62025;BME280;47978;49.118;12.146;2023-03-16T16:22:36;97679.63;;;7.36;40.58
62025;BME280;47978;49.118;12.146;2023-03-16T16:26:38;97679.38;;;7.27;42.07
62025;BME280;47978;49.118;12.146;2023-03-16T16:30:54;97677.19;;;7.24;43.46
62025;BME280;47978;49.118;12.146;2023-03-16T16:34:57;97679.44;;;7.12;42.56
62025;BME280;47978;49.118;12.146;2023-03-16T16:39:05;97679.44;;;7.02;43.37
62025;BME280;47978;49.118;12.146;2023-03-16T16:43:08;97678.91;;;6.99;44.31
62025;BME280;47978;49.118;12.146;2023-03-16T16:47:17;97692.94;;;6.93;46.02
62025;BME280;47978;49.118;12.146;2023-03-16T16:51:20;97687.19;;;6.79;47.08
62025;BME280;47978;49.118;12.146;2023-03-16T16:55:22;97684.16;;;6.60;48.64
62025;BME280;47978;49.118;12.146;2023-03-16T16:59:25;97683.63;;;6.33;50.95
62025;BME280;47978;49.118;12.146;2023-03-16T17:03:29;97699.00;;;6.13;51.71
62025;BME280;47978;49.118;12.146;2023-03-16T17:07:31;97702.25;;;6.00;52.73
62025;BME280;47978;49.118;12.146;2023-03-16T17:11:33;97711.00;;;5.86;54.44
62025;BME280;47978;49.118;12.146;2023-03-16T17:15:35;97714.97;;;5.53;57.86
62025;BME280;47978;49.118;12.146;2023-03-16T17:19:37;97717.09;;;5.36;59.64
62025;BME280;47978;49.118;12.146;2023-03-16T17:23:40;97705.72;;;5.07;60.55
62025;BME280;47978;49.118;12.146;2023-03-16T17:27:41;97711.63;;;4.88;60.63
62025;BME280;47978;49.118;12.146;2023-03-16T17:31:44;97714.13;;;4.58;61.99
62025;BME280;47978;49.118;12.146;2023-03-16T17:35:45;97717.81;;;4.36;62.31
62025;BME280;47978;49.118;12.146;2023-03-16T17:39:48;97718.63;;;4.37;63.60
62025;BME280;47978;49.118;12.146;2023-03-16T17:43:50;97707.59;;;3.99;64.08
62025;BME280;47978;49.118;12.146;2023-03-16T17:47:51;97704.59;;;3.74;64.42
62025;BME280;47978;49.118;12.146;2023-03-16T17:51:53;97697.59;;;3.34;66.77
62025;BME280;47978;49.118;12.146;2023-03-16T17:55:56;97689.44;;;3.39;66.25
62025;BME280;47978;49.118;12.146;2023-03-16T17:59:57;97692.41;;;3.15;67.12
62025;BME280;47978;49.118;12.146;2023-03-16T18:04:00;97693.75;;;3.13;67.41
62025;BME280;47978;49.118;12.146;2023-03-16T18:08:06;97693.47;;;2.92;67.87
62025;BME280;47978;49.118;12.146;2023-03-16T18:12:13;97691.19;;;2.67;69.32
62025;BME280;47978;49.118;12.146;2023-03-16T18:16:15;97677.72;;;2.61;69.19
62025;BME280;47978;49.118;12.146;2023-03-16T18:20:21;97672.13;;;2.51;69.36
62025;BME280;47978;49.118;12.146;2023-03-16T18:24:23;97676.28;;;2.36;70.25
62025;BME280;47978;49.118;12.146;2023-03-16T18:28:25;97689.06;;;2.53;70.23
62025;BME280;47978;49.118;12.146;2023-03-16T18:32:27;97693.38;;;2.48;70.41
62025;BME280;47978;49.118;12.146;2023-03-16T18:36:30;97682.16;;;2.28;71.24
62025;BME280;47978;49.118;12.146;2023-03-16T18:40:32;97671.56;;;2.32;70.34
62025;BME280;47978;49.118;12.146;2023-03-16T18:44:35;97664.69;;;2.29;70.66
62025;BME280;47978;49.118;12.146;2023-03-16T18:48:36;97659.97;;;2.24;70.58
62025;BME280;47978;49.118;12.146;2023-03-16T18:52:37;97667.03;;;2.20;71.24
62025;BME280;47978;49.118;12.146;2023-03-16T18:56:39;97661.97;;;2.12;70.97
62025;BME280;47978;49.118;12.146;2023-03-16T19:00:42;97664.97;;;2.11;71.34
62025;BME280;47978;49.118;12.146;2023-03-16T19:04:44;97669.56;;;2.27;71.01
62025;BME280;47978;49.118;12.146;2023-03-16T19:08:45;97670.97;;;2.13;71.69
62025;BME280;47978;49.118;12.146;2023-03-16T19:12:47;97686.78;;;2.11;72.30
62025;BME280;47978;49.118;12.146;2023-03-16T19:16:50;97688.91;;;1.92;72.93
62025;BME280;47978;49.118;12.146;2023-03-16T19:20:52;97689.31;;;2.00;72.45
62025;BME280;47978;49.118;12.146;2023-03-16T19:24:54;97687.31;;;1.96;72.60
62025;BME280;47978;49.118;12.146;2023-03-16T19:28:55;97675.59;;;1.95;73.02
62025;BME280;47978;49.118;12.146;2023-03-16T19:32:58;97661.44;;;1.82;73.36
62025;BME280;47978;49.118;12.146;2023-03-16T19:37:00;97662.19;;;1.77;73.82
62025;BME280;47978;49.118;12.146;2023-03-16T19:41:01;97669.19;;;1.73;73.99
62025;BME280;47978;49.118;12.146;2023-03-16T19:45:03;97655.31;;;1.57;74.32
62025;BME280;47978;49.118;12.146;2023-03-16T19:49:07;97667.19;;;1.51;75.13
62025;BME280;47978;49.118;12.146;2023-03-16T19:53:12;97666.44;;;1.56;73.60
62025;BME280;47978;49.118;12.146;2023-03-16T19:57:15;97671.22;;;1.49;74.61
62025;BME280;47978;49.118;12.146;2023-03-16T20:01:17;97646.97;;;1.35;75.00
62025;BME280;47978;49.118;12.146;2023-03-16T20:05:21;97653.50;;;1.34;74.87
62025;BME280;47978;49.118;12.146;2023-03-16T20:09:23;97649.53;;;1.25;75.24
62025;BME280;47978;49.118;12.146;2023-03-16T20:13:25;97657.69;;;1.25;75.73
62025;BME280;47978;49.118;12.146;2023-03-16T20:17:26;97649.63;;;1.19;76.34
62025;BME280;47978;49.118;12.146;2023-03-16T20:21:30;97652.56;;;1.29;75.90
62025;BME280;47978;49.118;12.146;2023-03-16T20:25:31;97657.09;;;1.23;76.07
62025;BME280;47978;49.118;12.146;2023-03-16T20:29:33;97647.47;;;1.32;75.67
62025;BME280;47978;49.118;12.146;2023-03-16T20:33:34;97639.88;;;1.34;75.46
62025;BME280;47978;49.118;12.146;2023-03-16T20:37:37;97648.59;;;1.20;76.31
62025;BME280;47978;49.118;12.146;2023-03-16T20:41:38;97651.31;;;1.20;76.11
62025;BME280;47978;49.118;12.146;2023-03-16T20:45:40;97647.50;;;1.21;76.15
62025;BME280;47978;49.118;12.146;2023-03-16T20:49:42;97645.00;;;1.19;76.48
62025;BME280;47978;49.118;12.146;2023-03-16T20:53:45;97641.25;;;1.20;76.05
62025;BME280;47978;49.118;12.146;2023-03-16T20:57:47;97646.09;;;1.18;76.30
62025;BME280;47978;49.118;12.146;2023-03-16T21:01:49;97638.06;;;1.11;76.68
62025;BME280;47978;49.118;12.146;2023-03-16T21:05:51;97636.88;;;1.07;76.29
62025;BME280;47978;49.118;12.146;2023-03-16T21:09:54;97633.13;;;1.08;76.02
62025;BME280;47978;49.118;12.146;2023-03-16T21:13:55;97625.44;;;1.05;76.38
62025;BME280;47978;49.118;12.146;2023-03-16T21:17:58;97617.28;;;1.22;75.75
62025;BME280;47978;49.118;12.146;2023-03-16T21:22:00;97620.38;;;1.26;74.01
62025;BME280;47978;49.118;12.146;2023-03-16T21:26:03;97611.94;;;1.27;74.23
62025;BME280;47978;49.118;12.146;2023-03-16T21:30:06;97612.88;;;1.33;74.70